sensor_id;sensor_type;location;lat;lon;timestamp;temperature;humidity
34460;DHT22;20704;51.260;22.558;2022-08-11T00:00:00;17.40;99.90
34460;DHT22;20704;51.260;22.558;2022-08-11T00:02:32;17.50;99.90
34460;DHT22;20704;51.260;22.558;2022-08-11T00:05:20;17.40;99.90
34460;DHT22;20704;51.260;22.558;2022-08-11T00:07:52;17.50;99.90
34460;DHT22;20704;51.260;22.558;2022-08-11T00:10:27;17.50;99.90
34460;DHT22;20704;51.260;22.558;2022-08-11T00:12:59;17.50;99.90
34460;DHT22;20704;51.260;22.558;2022-08-11T00:15:41;17.60;99.90
34460;DHT22;20704;51.260;22.558;2022-08-11T00:18:08;17.50;99.90
34460;DHT22;20704;51.260;22.558;2022-08-11T00:20:39;17.10;99.90
34460;DHT22;20704;51.260;22.558;2022-08-11T00:23:08;17.60;99.90
34460;DHT22;20704;51.260;22.558;2022-08-11T00:25:42;17.40;99.90
34460;DHT22;20704;51.260;22.558;2022-08-11T00:28:26;17.50;99.90
34460;DHT22;20704;51.260;22.558;2022-08-11T00:30:54;17.30;99.90
34460;DHT22;20704;51.260;22.558;2022-08-11T00:33:29;17.40;99.90
34460;DHT22;20704;51.260;22.558;2022-08-11T00:35:59;17.10;99.90
34460;DHT22;20704;51.260;22.558;2022-08-11T00:38:29;17.50;99.90
34460;DHT22;20704;51.260;22.558;2022-08-11T00:44:30;21.00;99.90
34460;DHT22;20704;51.260;22.558;2022-08-11T01:07:10;17.30;99.90
34460;DHT22;20704;51.260;22.558;2022-08-11T01:33:42;16.80;99.90
34460;DHT22;20704;51.260;22.558;2022-08-11T01:39:22;16.20;99.90
34460;DHT22;20704;51.260;22.558;2022-08-11T01:50:29;16.40;99.90
34460;DHT22;20704;51.260;22.558;2022-08-11T02:03:59;16.20;99.90
34460;DHT22;20704;51.260;22.558;2022-08-11T02:06:30;16.20;99.90
34460;DHT22;20704;51.260;22.558;2022-08-11T02:10:15;16.00;99.90
34460;DHT22;20704;51.260;22.558;2022-08-11T02:12:58;15.90;99.90
34460;DHT22;20704;51.260;22.558;2022-08-11T02:15:33;15.90;99.90
34460;DHT22;20704;51.260;22.558;2022-08-11T02:18:09;16.70;99.90
34460;DHT22;20704;51.260;22.558;2022-08-11T02:21:01;15.80;99.90
34460;DHT22;20704;51.260;22.558;2022-08-11T02:23:53;15.80;99.90
34460;DHT22;20704;51.260;22.558;2022-08-11T02:26:25;15.80;99.90
34460;DHT22;20704;51.260;22.558;2022-08-11T02:45:08;15.70;99.90
34460;DHT22;20704;51.260;22.558;2022-08-11T02:48:24;15.70;99.90
34460;DHT22;20704;51.260;22.558;2022-08-11T02:51:34;15.70;99.90
34460;DHT22;20704;51.260;22.558;2022-08-11T02:59:42;15.70;99.90
34460;DHT22;20704;51.260;22.558;2022-08-11T03:05:25;15.50;99.90
34460;DHT22;20704;51.260;22.558;2022-08-11T03:10:35;15.30;99.90
34460;DHT22;20704;51.260;22.558;2022-08-11T03:13:21;15.50;99.90
34460;DHT22;20704;51.260;22.558;2022-08-11T03:24:35;15.60;99.90
34460;DHT22;20704;51.260;22.558;2022-08-11T03:27:21;15.60;99.90
34460;DHT22;20704;51.260;22.558;2022-08-11T03:32:59;15.50;99.90
34460;DHT22;20704;51.260;22.558;2022-08-11T03:38:48;15.80;99.90
34460;DHT22;20704;51.260;22.558;2022-08-11T03:41:28;15.50;99.90
34460;DHT22;20704;51.260;22.558;2022-08-11T03:44:42;15.60;99.90
34460;DHT22;20704;51.260;22.558;2022-08-11T03:50:53;16.00;99.90
34460;DHT22;20704;51.260;22.558;2022-08-11T03:53:43;15.80;99.90
34460;DHT22;20704;51.260;22.558;2022-08-11T03:56:46;15.70;99.90
34460;DHT22;20704;51.260;22.558;2022-08-11T04:05:04;16.20;99.90
34460;DHT22;20704;51.260;22.558;2022-08-11T04:54:19;20.10;99.90
34460;DHT22;20704;51.260;22.558;2022-08-11T04:56:46;20.20;99.90
34460;DHT22;20704;51.260;22.558;2022-08-11T05:03:22;21.30;99.90
34460;DHT22;20704;51.260;22.558;2022-08-11T05:06:32;22.50;99.90
34460;DHT22;20704;51.260;22.558;2022-08-11T05:14:51;23.10;99.90
34460;DHT22;20704;51.260;22.558;2022-08-11T05:17:41;23.80;99.90
34460;DHT22;20704;51.260;22.558;2022-08-11T05:21:07;24.30;99.90
34460;DHT22;20704;51.260;22.558;2022-08-11T05:24:19;24.50;99.90
34460;DHT22;20704;51.260;22.558;2022-08-11T05:27:05;24.90;99.90
34460;DHT22;20704;51.260;22.558;2022-08-11T05:30:05;25.20;99.90
34460;DHT22;20704;51.260;22.558;2022-08-11T05:32:58;25.00;99.90
34460;DHT22;20704;51.260;22.558;2022-08-11T05:35:46;25.60;99.90
34460;DHT22;20704;51.260;22.558;2022-08-11T05:38:24;25.40;99.90
34460;DHT22;20704;51.260;22.558;2022-08-11T05:41:13;25.20;99.90
34460;DHT22;20704;51.260;22.558;2022-08-11T05:44:02;25.20;99.90
34460;DHT22;20704;51.260;22.558;2022-08-11T05:49:33;25.80;99.90
34460;DHT22;20704;51.260;22.558;2022-08-11T05:52:23;26.20;99.90
34460;DHT22;20704;51.260;22.558;2022-08-11T05:55:09;26.40;99.90
34460;DHT22;20704;51.260;22.558;2022-08-11T05:57:56;26.50;99.90
34460;DHT22;20704;51.260;22.558;2022-08-11T06:02:53;26.70;99.90
34460;DHT22;20704;51.260;22.558;2022-08-11T06:05:32;26.80;99.80
34460;DHT22;20704;51.260;22.558;2022-08-11T06:10:29;27.10;98.90
34460;DHT22;20704;51.260;22.558;2022-08-11T06:12:58;26.90;98.60
34460;DHT22;20704;51.260;22.558;2022-08-11T06:15:26;26.90;98.50
34460;DHT22;20704;51.260;22.558;2022-08-11T06:17:54;26.60;98.60
34460;DHT22;20704;51.260;22.558;2022-08-11T06:20:22;26.70;98.50
34460;DHT22;20704;51.260;22.558;2022-08-11T06:23:02;26.50;98.70
34460;DHT22;20704;51.260;22.558;2022-08-11T06:25:30;26.70;98.40
34460;DHT22;20704;51.260;22.558;2022-08-11T06:27:58;27.00;98.30
34460;DHT22;20704;51.260;22.558;2022-08-11T06:30:40;26.50;99.90
34460;DHT22;20704;51.260;22.558;2022-08-11T06:33:13;26.70;98.40
34460;DHT22;20704;51.260;22.558;2022-08-11T06:36:02;26.70;98.20
34460;DHT22;20704;51.260;22.558;2022-08-11T06:41:26;25.70;98.70
34460;DHT22;20704;51.260;22.558;2022-08-11T06:46:43;25.30;99.60
34460;DHT22;20704;51.260;22.558;2022-08-11T06:49:13;25.40;99.90
34460;DHT22;20704;51.260;22.558;2022-08-11T06:52:07;25.70;99.80
34460;DHT22;20704;51.260;22.558;2022-08-11T06:54:41;25.50;99.80
34460;DHT22;20704;51.260;22.558;2022-08-11T06:57:12;25.40;99.90
34460;DHT22;20704;51.260;22.558;2022-08-11T06:59:58;25.70;99.90
34460;DHT22;20704;51.260;22.558;2022-08-11T07:03:11;26.10;99.90
34460;DHT22;20704;51.260;22.558;2022-08-11T07:06:00;26.00;99.40
34460;DHT22;20704;51.260;22.558;2022-08-11T07:09:01;25.00;99.90
34460;DHT22;20704;51.260;22.558;2022-08-11T07:12:06;25.70;99.90
34460;DHT22;20704;51.260;22.558;2022-08-11T07:14:54;25.40;99.90
34460;DHT22;20704;51.260;22.558;2022-08-11T07:18:00;24.80;99.90
34460;DHT22;20704;51.260;22.558;2022-08-11T07:20:48;23.70;99.90
34460;DHT22;20704;51.260;22.558;2022-08-11T07:23:35;23.30;99.90
34460;DHT22;20704;51.260;22.558;2022-08-11T07:26:23;23.20;99.90
34460;DHT22;20704;51.260;22.558;2022-08-11T07:29:11;22.80;99.90
34460;DHT22;20704;51.260;22.558;2022-08-11T07:31:47;22.50;99.90
34460;DHT22;20704;51.260;22.558;2022-08-11T07:36:59;22.10;99.90
34460;DHT22;20704;51.260;22.558;2022-08-11T07:39:32;21.70;99.90
34460;DHT22;20704;51.260;22.558;2022-08-11T07:44:26;21.60;99.90
34460;DHT22;20704;51.260;22.558;2022-08-11T07:46:56;21.60;99.90
34460;DHT22;20704;51.260;22.558;2022-08-11T07:49:44;21.80;99.90
34460;DHT22;20704;51.260;22.558;2022-08-11T07:52:33;22.00;99.90
34460;DHT22;20704;51.260;22.558;2022-08-11T07:55:11;22.40;99.90
34460;DHT22;20704;51.260;22.558;2022-08-11T07:57:39;22.60;99.90
34460;DHT22;20704;51.260;22.558;2022-08-11T08:00:24;22.80;99.90
34460;DHT22;20704;51.260;22.558;2022-08-11T08:19:42;24.30;99.90
34460;DHT22;20704;51.260;22.558;2022-08-11T08:22:15;24.70;99.90
34460;DHT22;20704;51.260;22.558;2022-08-11T08:24:43;24.80;99.90
34460;DHT22;20704;51.260;22.558;2022-08-11T08:29:39;24.70;99.90
34460;DHT22;20704;51.260;22.558;2022-08-11T08:34:56;24.50;99.90
34460;DHT22;20704;51.260;22.558;2022-08-11T08:37:24;24.40;99.90
34460;DHT22;20704;51.260;22.558;2022-08-11T08:39:53;23.90;99.90
34460;DHT22;20704;51.260;22.558;2022-08-11T08:42:24;22.20;99.90
34460;DHT22;20704;51.260;22.558;2022-08-11T08:44:56;22.60;99.90
34460;DHT22;20704;51.260;22.558;2022-08-11T08:47:24;22.70;99.90
34460;DHT22;20704;51.260;22.558;2022-08-11T08:50:00;23.00;99.90
34460;DHT22;20704;51.260;22.558;2022-08-11T08:52:31;22.90;99.90
34460;DHT22;20704;51.260;22.558;2022-08-11T08:55:03;22.80;99.90
34460;DHT22;20704;51.260;22.558;2022-08-11T08:57:33;23.00;99.90
34460;DHT22;20704;51.260;22.558;2022-08-11T09:00:01;23.40;99.90
34460;DHT22;20704;51.260;22.558;2022-08-11T09:02:28;23.60;99.90
34460;DHT22;20704;51.260;22.558;2022-08-11T09:07:22;23.80;99.90
34460;DHT22;20704;51.260;22.558;2022-08-11T09:09:55;23.90;99.90
34460;DHT22;20704;51.260;22.558;2022-08-11T09:12:25;24.20;99.90
34460;DHT22;20704;51.260;22.558;2022-08-11T09:14:52;23.90;99.90
34460;DHT22;20704;51.260;22.558;2022-08-11T09:17:27;24.10;99.90
34460;DHT22;20704;51.260;22.558;2022-08-11T09:20:01;23.90;99.90
34460;DHT22;20704;51.260;22.558;2022-08-11T09:22:31;23.90;99.90
34460;DHT22;20704;51.260;22.558;2022-08-11T09:25:17;24.20;99.90
34460;DHT22;20704;51.260;22.558;2022-08-11T09:33:00;24.00;99.90
34460;DHT22;20704;51.260;22.558;2022-08-11T09:35:28;23.80;99.90
34460;DHT22;20704;51.260;22.558;2022-08-11T09:37:55;23.00;99.90
34460;DHT22;20704;51.260;22.558;2022-08-11T09:40:44;22.80;99.90
34460;DHT22;20704;51.260;22.558;2022-08-11T09:43:12;22.60;99.90
34460;DHT22;20704;51.260;22.558;2022-08-11T09:45:58;22.50;99.90
34460;DHT22;20704;51.260;22.558;2022-08-11T09:48:27;22.40;99.90
34460;DHT22;20704;51.260;22.558;2022-08-11T09:50:56;22.10;99.90
34460;DHT22;20704;51.260;22.558;2022-08-11T09:53:33;22.20;99.90
34460;DHT22;20704;51.260;22.558;2022-08-11T09:56:00;22.40;99.90
34460;DHT22;20704;51.260;22.558;2022-08-11T10:01:21;22.40;99.90
34460;DHT22;20704;51.260;22.558;2022-08-11T10:04:10;22.40;99.90
34460;DHT22;20704;51.260;22.558;2022-08-11T10:06:41;22.70;99.90
34460;DHT22;20704;51.260;22.558;2022-08-11T10:09:34;22.60;99.90
34460;DHT22;20704;51.260;22.558;2022-08-11T10:12:03;22.70;99.90
34460;DHT22;20704;51.260;22.558;2022-08-11T10:14:30;22.90;99.90
34460;DHT22;20704;51.260;22.558;2022-08-11T10:17:18;23.00;99.90
34460;DHT22;20704;51.260;22.558;2022-08-11T10:19:46;23.10;99.90
34460;DHT22;20704;51.260;22.558;2022-08-11T10:22:15;23.00;99.90
34460;DHT22;20704;51.260;22.558;2022-08-11T10:27:47;23.90;99.90
34460;DHT22;20704;51.260;22.558;2022-08-11T10:30:25;24.10;99.90
34460;DHT22;20704;51.260;22.558;2022-08-11T10:33:12;24.20;99.90
34460;DHT22;20704;51.260;22.558;2022-08-11T10:35:58;24.30;99.90
34460;DHT22;20704;51.260;22.558;2022-08-11T10:38:25;24.50;99.90
34460;DHT22;20704;51.260;22.558;2022-08-11T10:40:54;24.60;99.90
34460;DHT22;20704;51.260;22.558;2022-08-11T10:43:53;24.30;99.90
34460;DHT22;20704;51.260;22.558;2022-08-11T10:49:06;23.50;99.90
34460;DHT22;20704;51.260;22.558;2022-08-11T10:54:20;23.90;99.90
34460;DHT22;20704;51.260;22.558;2022-08-11T11:02:20;24.30;99.90
34460;DHT22;20704;51.260;22.558;2022-08-11T11:07:43;24.60;99.90
34460;DHT22;20704;51.260;22.558;2022-08-11T11:12:43;25.20;99.90
34460;DHT22;20704;51.260;22.558;2022-08-11T11:15:29;24.50;99.90
34460;DHT22;20704;51.260;22.558;2022-08-11T11:18:22;25.00;99.90
34460;DHT22;20704;51.260;22.558;2022-08-11T11:23:27;24.80;99.80
34460;DHT22;20704;51.260;22.558;2022-08-11T11:37:29;24.40;98.80
34460;DHT22;20704;51.260;22.558;2022-08-11T11:39:57;24.50;98.30
34460;DHT22;20704;51.260;22.558;2022-08-11T11:47:18;25.20;98.70
34460;DHT22;20704;51.260;22.558;2022-08-11T11:49:45;24.70;99.20
34460;DHT22;20704;51.260;22.558;2022-08-11T11:52:19;24.60;99.50
34460;DHT22;20704;51.260;22.558;2022-08-11T11:54:46;25.00;98.20
34460;DHT22;20704;51.260;22.558;2022-08-11T11:57:17;24.80;97.20
34460;DHT22;20704;51.260;22.558;2022-08-11T12:00:07;24.30;98.20
34460;DHT22;20704;51.260;22.558;2022-08-11T12:10:31;25.50;95.70
34460;DHT22;20704;51.260;22.558;2022-08-11T12:13:00;24.70;96.40
34460;DHT22;20704;51.260;22.558;2022-08-11T12:15:46;25.20;95.90
34460;DHT22;20704;51.260;22.558;2022-08-11T12:18:14;25.50;95.90
34460;DHT22;20704;51.260;22.558;2022-08-11T12:20:41;25.70;96.40
34460;DHT22;20704;51.260;22.558;2022-08-11T12:33:38;24.40;99.90
34460;DHT22;20704;51.260;22.558;2022-08-11T12:36:09;23.60;99.90
34460;DHT22;20704;51.260;22.558;2022-08-11T12:38:46;23.40;99.90
34460;DHT22;20704;51.260;22.558;2022-08-11T12:41:13;23.30;99.90
34460;DHT22;20704;51.260;22.558;2022-08-11T12:43:59;23.30;99.90
34460;DHT22;20704;51.260;22.558;2022-08-11T12:46:45;23.30;99.90
34460;DHT22;20704;51.260;22.558;2022-08-11T12:49:18;23.40;99.90
34460;DHT22;20704;51.260;22.558;2022-08-11T12:52:08;23.50;99.90
34460;DHT22;20704;51.260;22.558;2022-08-11T13:00:01;24.20;99.90
34460;DHT22;20704;51.260;22.558;2022-08-11T13:02:46;24.40;99.90
34460;DHT22;20704;51.260;22.558;2022-08-11T13:05:32;24.60;99.90
34460;DHT22;20704;51.260;22.558;2022-08-11T13:08:01;24.80;99.90
34460;DHT22;20704;51.260;22.558;2022-08-11T13:10:28;24.70;99.90
34460;DHT22;20704;51.260;22.558;2022-08-11T13:13:17;24.80;99.90
34460;DHT22;20704;51.260;22.558;2022-08-11T13:15:49;24.90;99.90
34460;DHT22;20704;51.260;22.558;2022-08-11T13:18:18;24.80;99.90
34460;DHT22;20704;51.260;22.558;2022-08-11T13:20:57;24.70;99.90
34460;DHT22;20704;51.260;22.558;2022-08-11T13:23:25;24.70;99.90
34460;DHT22;20704;51.260;22.558;2022-08-11T13:25:53;24.70;99.90
34460;DHT22;20704;51.260;22.558;2022-08-11T13:28:21;24.70;99.90
34460;DHT22;20704;51.260;22.558;2022-08-11T13:30:51;24.60;99.90
34460;DHT22;20704;51.260;22.558;2022-08-11T13:33:40;24.40;99.90
34460;DHT22;20704;51.260;22.558;2022-08-11T13:36:07;24.50;99.90
34460;DHT22;20704;51.260;22.558;2022-08-11T13:38:34;24.30;99.90
34460;DHT22;20704;51.260;22.558;2022-08-11T13:43:28;24.10;99.90
34460;DHT22;20704;51.260;22.558;2022-08-11T13:51:09;18.80;99.90
34460;DHT22;20704;51.260;22.558;2022-08-11T13:53:57;19.10;99.90
34460;DHT22;20704;51.260;22.558;2022-08-11T13:56:24;19.40;99.90
34460;DHT22;20704;51.260;22.558;2022-08-11T13:58:53;19.50;99.90
34460;DHT22;20704;51.260;22.558;2022-08-11T14:01:20;19.40;99.90
34460;DHT22;20704;51.260;22.558;2022-08-11T14:03:48;19.20;99.90
34460;DHT22;20704;51.260;22.558;2022-08-11T14:06:17;19.30;99.90
34460;DHT22;20704;51.260;22.558;2022-08-11T14:08:44;19.30;99.90
34460;DHT22;20704;51.260;22.558;2022-08-11T14:11:12;19.30;99.90
34460;DHT22;20704;51.260;22.558;2022-08-11T14:16:31;19.40;99.90
34460;DHT22;20704;51.260;22.558;2022-08-11T14:19:04;19.50;99.90
34460;DHT22;20704;51.260;22.558;2022-08-11T14:21:37;19.40;99.90
34460;DHT22;20704;51.260;22.558;2022-08-11T14:24:25;19.50;99.90
34460;DHT22;20704;51.260;22.558;2022-08-11T14:26:53;19.50;99.90
34460;DHT22;20704;51.260;22.558;2022-08-11T14:29:20;19.60;99.90
34460;DHT22;20704;51.260;22.558;2022-08-11T14:31:56;19.70;99.90
34460;DHT22;20704;51.260;22.558;2022-08-11T14:34:25;19.80;99.90
34460;DHT22;20704;51.260;22.558;2022-08-11T14:36:58;19.90;99.90
34460;DHT22;20704;51.260;22.558;2022-08-11T14:39:26;20.00;99.90
34460;DHT22;20704;51.260;22.558;2022-08-11T14:41:55;19.90;99.90
34460;DHT22;20704;51.260;22.558;2022-08-11T14:44:44;19.90;99.90
34460;DHT22;20704;51.260;22.558;2022-08-11T14:47:50;19.60;99.90
34460;DHT22;20704;51.260;22.558;2022-08-11T14:50:28;19.30;99.90
34460;DHT22;20704;51.260;22.558;2022-08-11T14:53:10;19.80;99.90
34460;DHT22;20704;51.260;22.558;2022-08-11T14:55:40;20.10;99.90
34460;DHT22;20704;51.260;22.558;2022-08-11T14:58:28;19.90;99.90
34460;DHT22;20704;51.260;22.558;2022-08-11T15:00:59;20.10;99.90
34460;DHT22;20704;51.260;22.558;2022-08-11T15:03:27;20.20;99.90
34460;DHT22;20704;51.260;22.558;2022-08-11T15:05:56;20.40;99.90
34460;DHT22;20704;51.260;22.558;2022-08-11T15:08:24;20.40;99.90
34460;DHT22;20704;51.260;22.558;2022-08-11T15:11:11;20.60;99.90
34460;DHT22;20704;51.260;22.558;2022-08-11T15:13:59;20.80;99.90
34460;DHT22;20704;51.260;22.558;2022-08-11T15:16:26;20.90;99.90
34460;DHT22;20704;51.260;22.558;2022-08-11T15:19:12;21.00;99.90
34460;DHT22;20704;51.260;22.558;2022-08-11T15:26:51;21.40;99.90
34460;DHT22;20704;51.260;22.558;2022-08-11T15:29:38;21.50;99.90
34460;DHT22;20704;51.260;22.558;2022-08-11T15:32:25;21.30;99.90
34460;DHT22;20704;51.260;22.558;2022-08-11T15:35:11;21.50;99.90
34460;DHT22;20704;51.260;22.558;2022-08-11T15:38:00;21.60;99.90
34460;DHT22;20704;51.260;22.558;2022-08-11T15:40:30;21.60;99.90
34460;DHT22;20704;51.260;22.558;2022-08-11T15:43:21;21.80;99.90
34460;DHT22;20704;51.260;22.558;2022-08-11T15:46:20;21.90;99.90
34460;DHT22;20704;51.260;22.558;2022-08-11T15:49:10;21.90;99.90
34460;DHT22;20704;51.260;22.558;2022-08-11T15:51:44;21.90;99.90
34460;DHT22;20704;51.260;22.558;2022-08-11T15:54:18;21.90;99.90
34460;DHT22;20704;51.260;22.558;2022-08-11T15:56:49;22.00;99.90
34460;DHT22;20704;51.260;22.558;2022-08-11T15:59:18;22.00;99.90
34460;DHT22;20704;51.260;22.558;2022-08-11T16:02:03;21.90;99.90
34460;DHT22;20704;51.260;22.558;2022-08-11T16:05:09;21.80;99.90
34460;DHT22;20704;51.260;22.558;2022-08-11T16:07:40;22.00;99.90
34460;DHT22;20704;51.260;22.558;2022-08-11T16:10:10;22.00;99.90
34460;DHT22;20704;51.260;22.558;2022-08-11T16:12:46;22.10;99.90
34460;DHT22;20704;51.260;22.558;2022-08-11T16:15:34;22.10;99.90
34460;DHT22;20704;51.260;22.558;2022-08-11T16:18:24;22.10;99.90
34460;DHT22;20704;51.260;22.558;2022-08-11T16:21:12;22.10;99.90
34460;DHT22;20704;51.260;22.558;2022-08-11T16:23:41;22.10;99.90
34460;DHT22;20704;51.260;22.558;2022-08-11T16:26:08;22.00;99.90
34460;DHT22;20704;51.260;22.558;2022-08-11T16:28:35;21.90;99.90
34460;DHT22;20704;51.260;22.558;2022-08-11T16:31:04;21.60;99.90
34460;DHT22;20704;51.260;22.558;2022-08-11T16:33:37;21.80;99.90
34460;DHT22;20704;51.260;22.558;2022-08-11T16:36:08;22.20;99.90
34460;DHT22;20704;51.260;22.558;2022-08-11T16:38:54;21.90;99.90
34460;DHT22;20704;51.260;22.558;2022-08-11T16:41:22;21.90;99.90
34460;DHT22;20704;51.260;22.558;2022-08-11T16:44:09;21.90;99.90
34460;DHT22;20704;51.260;22.558;2022-08-11T16:46:56;21.90;99.90
34460;DHT22;20704;51.260;22.558;2022-08-11T16:49:51;21.90;99.90
34460;DHT22;20704;51.260;22.558;2022-08-11T17:00:07;21.80;99.90
34460;DHT22;20704;51.260;22.558;2022-08-11T17:02:39;21.80;99.90
34460;DHT22;20704;51.260;22.558;2022-08-11T17:13:47;21.70;99.90
34460;DHT22;20704;51.260;22.558;2022-08-11T17:16:21;21.60;99.90
34460;DHT22;20704;51.260;22.558;2022-08-11T17:18:57;21.50;99.90
34460;DHT22;20704;51.260;22.558;2022-08-11T17:21:30;21.50;99.90
34460;DHT22;20704;51.260;22.558;2022-08-11T17:24:06;21.50;99.90
34460;DHT22;20704;51.260;22.558;2022-08-11T17:26:41;21.20;99.90
34460;DHT22;20704;51.260;22.558;2022-08-11T17:29:49;21.30;99.90
34460;DHT22;20704;51.260;22.558;2022-08-11T17:32:40;21.30;99.90
34460;DHT22;20704;51.260;22.558;2022-08-11T17:35:33;21.20;99.90
34460;DHT22;20704;51.260;22.558;2022-08-11T17:38:13;21.20;99.90
34460;DHT22;20704;51.260;22.558;2022-08-11T17:40:44;21.20;99.90
34460;DHT22;20704;51.260;22.558;2022-08-11T17:43:30;21.10;99.90
34460;DHT22;20704;51.260;22.558;2022-08-11T17:46:17;21.10;99.90
34460;DHT22;20704;51.260;22.558;2022-08-11T17:49:05;21.00;99.90
34460;DHT22;20704;51.260;22.558;2022-08-11T17:51:33;21.00;99.90
34460;DHT22;20704;51.260;22.558;2022-08-11T17:54:20;20.90;99.90
34460;DHT22;20704;51.260;22.558;2022-08-11T17:57:07;20.90;99.90
34460;DHT22;20704;51.260;22.558;2022-08-11T17:59:53;20.90;99.90
34460;DHT22;20704;51.260;22.558;2022-08-11T18:05:10;20.70;99.90
34460;DHT22;20704;51.260;22.558;2022-08-11T18:07:38;20.70;99.90
34460;DHT22;20704;51.260;22.558;2022-08-11T18:10:24;21.00;99.90
34460;DHT22;20704;51.260;22.558;2022-08-11T18:21:27;20.60;99.90
34460;DHT22;20704;51.260;22.558;2022-08-11T18:24:15;20.50;99.90
34460;DHT22;20704;51.260;22.558;2022-08-11T18:27:03;20.50;99.90
34460;DHT22;20704;51.260;22.558;2022-08-11T18:29:49;20.50;99.90
34460;DHT22;20704;51.260;22.558;2022-08-11T18:32:38;20.50;99.90
34460;DHT22;20704;51.260;22.558;2022-08-11T18:38:11;20.40;99.90
34460;DHT22;20704;51.260;22.558;2022-08-11T18:40:57;20.30;99.90
34460;DHT22;20704;51.260;22.558;2022-08-11T18:43:46;20.20;99.90
34460;DHT22;20704;51.260;22.558;2022-08-11T18:46:33;20.20;99.90
34460;DHT22;20704;51.260;22.558;2022-08-11T18:49:30;19.80;99.90
34460;DHT22;20704;51.260;22.558;2022-08-11T18:52:18;20.20;99.90
34460;DHT22;20704;51.260;22.558;2022-08-11T18:55:07;19.60;99.90
34460;DHT22;20704;51.260;22.558;2022-08-11T18:57:53;19.90;99.90
34460;DHT22;20704;51.260;22.558;2022-08-11T19:00:40;20.00;99.90
34460;DHT22;20704;51.260;22.558;2022-08-11T19:03:27;19.90;99.90
34460;DHT22;20704;51.260;22.558;2022-08-11T19:06:14;19.90;99.90
34460;DHT22;20704;51.260;22.558;2022-08-11T19:09:02;19.80;99.90
34460;DHT22;20704;51.260;22.558;2022-08-11T19:11:49;20.10;99.90
34460;DHT22;20704;51.260;22.558;2022-08-11T19:14:34;19.70;99.90
34460;DHT22;20704;51.260;22.558;2022-08-11T19:17:23;19.60;99.90
34460;DHT22;20704;51.260;22.558;2022-08-11T19:20:20;19.60;99.90
34460;DHT22;20704;51.260;22.558;2022-08-11T19:23:07;19.50;99.90
34460;DHT22;20704;51.260;22.558;2022-08-11T19:25:53;19.50;99.90
34460;DHT22;20704;51.260;22.558;2022-08-11T19:28:40;19.40;99.90
34460;DHT22;20704;51.260;22.558;2022-08-11T19:31:26;19.40;99.90
34460;DHT22;20704;51.260;22.558;2022-08-11T19:34:16;19.30;99.90
34460;DHT22;20704;51.260;22.558;2022-08-11T19:37:01;19.40;99.90
34460;DHT22;20704;51.260;22.558;2022-08-11T19:39:47;19.20;99.90
34460;DHT22;20704;51.260;22.558;2022-08-11T19:53:33;18.90;99.90
34460;DHT22;20704;51.260;22.558;2022-08-11T19:56:20;18.90;99.90
34460;DHT22;20704;51.260;22.558;2022-08-11T20:07:20;18.70;99.90
34460;DHT22;20704;51.260;22.558;2022-08-11T20:10:06;18.90;99.90
34460;DHT22;20704;51.260;22.558;2022-08-11T20:12:53;18.70;99.90
34460;DHT22;20704;51.260;22.558;2022-08-11T20:15:39;18.70;99.90
34460;DHT22;20704;51.260;22.558;2022-08-11T20:18:25;18.70;99.90
34460;DHT22;20704;51.260;22.558;2022-08-11T20:21:11;18.70;99.90
34460;DHT22;20704;51.260;22.558;2022-08-11T20:23:57;18.70;99.90
34460;DHT22;20704;51.260;22.558;2022-08-11T20:26:44;18.60;99.90
34460;DHT22;20704;51.260;22.558;2022-08-11T20:29:31;18.60;99.90
34460;DHT22;20704;51.260;22.558;2022-08-11T20:35:05;18.40;99.90
34460;DHT22;20704;51.260;22.558;2022-08-11T20:37:51;18.50;99.90
34460;DHT22;20704;51.260;22.558;2022-08-11T20:40:38;18.50;99.90
34460;DHT22;20704;51.260;22.558;2022-08-11T20:46:09;18.40;99.90
34460;DHT22;20704;51.260;22.558;2022-08-11T20:48:57;18.50;99.90
34460;DHT22;20704;51.260;22.558;2022-08-11T20:54:28;18.40;99.90
34460;DHT22;20704;51.260;22.558;2022-08-11T20:57:15;18.00;99.90
34460;DHT22;20704;51.260;22.558;2022-08-11T21:00:01;18.30;99.90
34460;DHT22;20704;51.260;22.558;2022-08-11T21:02:48;18.40;99.90
34460;DHT22;20704;51.260;22.558;2022-08-11T21:05:36;18.30;99.90
34460;DHT22;20704;51.260;22.558;2022-08-11T21:08:26;18.10;99.90
34460;DHT22;20704;51.260;22.558;2022-08-11T21:11:12;18.30;99.90
34460;DHT22;20704;51.260;22.558;2022-08-11T21:13:59;18.30;99.90
34460;DHT22;20704;51.260;22.558;2022-08-11T21:16:46;18.20;99.90
34460;DHT22;20704;51.260;22.558;2022-08-11T21:19:34;18.20;99.90
34460;DHT22;20704;51.260;22.558;2022-08-11T21:22:29;18.20;99.90
34460;DHT22;20704;51.260;22.558;2022-08-11T21:25:16;18.20;99.90
34460;DHT22;20704;51.260;22.558;2022-08-11T21:28:04;18.20;99.90
34460;DHT22;20704;51.260;22.558;2022-08-11T21:30:52;18.20;99.90
34460;DHT22;20704;51.260;22.558;2022-08-11T21:33:37;18.30;99.90
34460;DHT22;20704;51.260;22.558;2022-08-11T21:36:24;18.30;99.90
34460;DHT22;20704;51.260;22.558;2022-08-11T21:39:10;18.30;99.90
34460;DHT22;20704;51.260;22.558;2022-08-11T21:44:43;18.40;99.90
34460;DHT22;20704;51.260;22.558;2022-08-11T21:47:29;18.40;99.90
34460;DHT22;20704;51.260;22.558;2022-08-11T21:55:45;18.60;99.90
34460;DHT22;20704;51.260;22.558;2022-08-11T22:01:15;18.60;99.90
34460;DHT22;20704;51.260;22.558;2022-08-11T22:04:02;18.60;99.90
34460;DHT22;20704;51.260;22.558;2022-08-11T22:06:49;18.60;99.90
34460;DHT22;20704;51.260;22.558;2022-08-11T22:09:35;18.60;99.90
34460;DHT22;20704;51.260;22.558;2022-08-11T22:15:06;18.50;99.90
34460;DHT22;20704;51.260;22.558;2022-08-11T22:20:39;18.40;99.90
34460;DHT22;20704;51.260;22.558;2022-08-11T22:26:11;18.30;99.90
34460;DHT22;20704;51.260;22.558;2022-08-11T22:28:56;18.80;99.90
34460;DHT22;20704;51.260;22.558;2022-08-11T22:34:27;18.30;99.90
34460;DHT22;20704;51.260;22.558;2022-08-11T22:37:13;18.30;99.90
34460;DHT22;20704;51.260;22.558;2022-08-11T22:39:59;18.30;99.90
34460;DHT22;20704;51.260;22.558;2022-08-11T22:48:16;18.10;99.90
34460;DHT22;20704;51.260;22.558;2022-08-11T22:59:19;18.10;99.90
34460;DHT22;20704;51.260;22.558;2022-08-11T23:02:05;18.00;99.90
34460;DHT22;20704;51.260;22.558;2022-08-11T23:04:51;18.10;99.90
34460;DHT22;20704;51.260;22.558;2022-08-11T23:07:36;18.00;99.90
34460;DHT22;20704;51.260;22.558;2022-08-11T23:10:22;17.90;99.90
34460;DHT22;20704;51.260;22.558;2022-08-11T23:13:08;17.90;99.90